Time;durP1;ratioP1;P1;durP2;ratioP2;P2;SDS_P1;SDS_P2;PMS_P1;PMS_P2;Temp;Humidity;BMP_temperature;BMP_pressure;BME280_temperature;BME280_humidity;BME280_pressure;Samples;Min_cycle;Max_cycle;Signal;HPM_P1;HPM_P2
2023/04/12 00:01:03;;;;;;;4.10;2.83;;;15.60;96.70;;;;;;5082417;28;20044;-75
2023/04/12 00:03:33;;;;;;;3.30;2.30;;;15.60;96.70;;;;;;5082981;28;20398;-74
2023/04/12 00:06:06;;;;;;;5.45;2.83;;;15.60;96.70;;;;;;5082318;28;20044;-74
2023/04/12 00:08:34;;;;;;;4.57;2.80;;;15.50;96.70;;;;;;5076432;28;20043;-74
2023/04/12 00:11:02;;;;;;;4.70;2.85;;;15.50;96.70;;;;;;5077607;28;20110;-74
2023/04/12 00:13:30;;;;;;;7.18;3.58;;;15.60;96.70;;;;;;5093522;28;20164;-74
2023/04/12 00:15:58;;;;;;;4.70;2.83;;;15.60;96.70;;;;;;5078791;28;20086;-75
2023/04/12 00:18:28;;;;;;;4.78;2.90;;;15.60;96.70;;;;;;5074925;28;20036;-75
2023/04/12 00:20:56;;;;;;;4.22;2.95;;;15.50;96.70;;;;;;5076031;28;20056;-75
2023/04/12 00:23:24;;;;;;;6.25;3.45;;;15.50;96.70;;;;;;5074323;28;20055;-74
2023/04/12 00:25:52;;;;;;;4.95;3.25;;;15.40;96.70;;;;;;5076008;28;20655;-75
2023/04/12 00:28:20;;;;;;;3.85;3.30;;;15.40;96.70;;;;;;5076206;28;20039;-74
2023/04/12 00:30:50;;;;;;;4.15;3.58;;;15.40;96.70;;;;;;5077063;28;20042;-75
2023/04/12 00:33:19;;;;;;;4.20;3.10;;;15.50;96.70;;;;;;5084329;28;20109;-75
2023/04/12 03:04:49;;;;;;;7.70;4.65;;;15.10;96.70;;;;;;5065561;28;20070;-72
2023/04/12 03:07:22;;;;;;;7.07;5.13;;;15.00;96.70;;;;;;5068655;28;20074;-72
2023/04/12 03:09:52;;;;;;;7.00;5.32;;;15.00;96.70;;;;;;5085377;28;20147;-73
2023/04/12 03:46:32;;;;;;;4.22;3.00;;;15.00;96.70;;;;;;5079888;28;20060;-74
2023/04/12 03:49:05;;;;;;;4.28;2.83;;;14.90;96.70;;;;;;5077993;28;20040;-75
2023/04/12 03:51:34;;;;;;;4.90;3.20;;;15.00;96.70;;;;;;5080481;28;20048;-74
2023/04/12 03:54:03;;;;;;;4.32;3.20;;;14.90;96.70;;;;;;5063680;28;20047;-74
2023/04/12 03:56:44;;;;;;;4.82;3.33;;;14.90;96.70;;;;;;5078966;28;20569;-75
2023/04/12 03:59:21;;;;;;;5.22;3.25;;;14.90;96.70;;;;;;5056541;28;20078;-74
2023/04/12 04:01:52;;;;;;;5.38;2.83;;;14.90;96.70;;;;;;5062106;28;20513;-74
2023/04/12 04:04:22;;;;;;;3.97;2.97;;;14.90;96.70;;;;;;5078975;28;20067;-74
2023/04/12 04:11:08;;;;;;;4.47;3.13;;;14.90;96.70;;;;;;5073541;28;20043;-74
2023/04/12 04:13:40;;;;;;;3.97;2.83;;;14.80;96.70;;;;;;5082658;28;20208;-74
2023/04/12 04:16:11;;;;;;;4.38;3.08;;;14.90;96.70;;;;;;5082550;28;20544;-78
2023/04/12 04:30:56;;;;;;;3.20;2.45;;;14.80;96.70;;;;;;5077731;28;20036;-74
2023/04/12 04:33:25;;;;;;;3.55;2.35;;;14.70;96.70;;;;;;5062947;28;20141;-74
2023/04/12 04:35:56;;;;;;;3.75;2.40;;;14.70;96.70;;;;;;5080562;28;20036;-74
2023/04/12 04:38:27;;;;;;;4.32;2.92;;;14.80;96.70;;;;;;5080250;28;20047;-72
2023/04/12 04:41:05;;;;;;;4.57;2.90;;;14.70;96.70;;;;;;5079670;28;20048;-73
2023/04/12 04:43:47;;;;;;;5.40;2.90;;;14.70;96.70;;;;;;5079223;28;20059;-73
2023/04/12 04:55:12;;;;;;;4.22;2.65;;;14.60;96.70;;;;;;5087397;28;20043;-74
2023/04/12 04:57:44;;;;;;;4.63;3.33;;;14.50;96.70;;;;;;5083747;28;20031;-73
2023/04/12 05:00:17;;;;;;;5.15;3.10;;;14.50;96.70;;;;;;5065858;28;20071;-74
2023/04/12 05:02:52;;;;;;;4.45;2.63;;;14.50;96.70;;;;;;5080088;28;20486;-73
2023/04/12 05:05:27;;;;;;;4.22;2.90;;;14.50;96.70;;;;;;5080409;28;20155;-73
2023/04/12 05:08:03;;;;;;;4.93;2.80;;;14.60;96.70;;;;;;5082060;28;20544;-74
2023/04/12 05:10:35;;;;;;;4.90;3.00;;;14.60;96.70;;;;;;5063675;28;20080;-73
2023/04/12 05:13:03;;;;;;;5.03;2.90;;;14.60;96.70;;;;;;5076733;28;20501;-73
2023/04/12 05:15:31;;;;;;;3.95;2.90;;;14.50;96.70;;;;;;5077021;28;20097;-73
2023/04/12 05:18:00;;;;;;;3.88;2.92;;;14.50;96.70;;;;;;5079778;28;20051;-73
2023/04/12 05:20:30;;;;;;;3.67;2.78;;;14.50;96.70;;;;;;5082616;28;20039;-73
2023/04/12 05:22:59;;;;;;;5.18;2.83;;;14.50;96.70;;;;;;5083675;28;20040;-73
2023/04/12 05:25:28;;;;;;;5.95;3.15;;;14.40;96.70;;;;;;5082108;28;20036;-73
2023/04/12 05:28:10;;;;;;;3.53;2.60;;;14.50;96.70;;;;;;5065753;28;20125;-73
2023/04/12 05:30:38;;;;;;;5.40;2.67;;;14.60;96.70;;;;;;5068085;28;20035;-73
2023/04/12 05:33:09;;;;;;;5.70;2.58;;;14.60;96.70;;;;;;5059780;28;20683;-73
2023/04/12 05:35:43;;;;;;;4.63;2.60;;;14.60;96.70;;;;;;5079041;28;20090;-73
2023/04/12 05:38:11;;;;;;;3.13;2.75;;;14.60;96.70;;;;;;5079659;28;20077;-73
2023/04/12 05:40:40;;;;;;;3.72;3.00;;;14.70;96.70;;;;;;5080178;28;20035;-73
2023/04/12 05:43:13;;;;;;;6.45;3.13;;;14.60;96.70;;;;;;5086313;28;20051;-73
2023/04/12 05:45:42;;;;;;;7.57;3.22;;;14.60;96.70;;;;;;5075392;28;20391;-73
2023/04/12 05:48:10;;;;;;;3.53;2.90;;;14.70;96.70;;;;;;5094656;28;20047;-73
2023/04/12 05:50:38;;;;;;;5.97;3.58;;;14.60;96.70;;;;;;5080873;28;20036;-73
2023/04/12 05:53:07;;;;;;;5.82;3.58;;;14.60;96.70;;;;;;5081136;28;20044;-74
2023/04/12 05:55:36;;;;;;;5.47;3.30;;;14.50;96.70;;;;;;5063711;28;20528;-73
2023/04/12 05:58:06;;;;;;;3.05;2.72;;;14.60;96.70;;;;;;5083795;28;20065;-74
2023/04/12 06:00:36;;;;;;;4.60;2.88;;;14.50;96.70;;;;;;5090206;28;20171;-73
2023/04/12 06:03:04;;;;;;;6.30;3.67;;;14.50;96.70;;;;;;5080412;28;20047;-73
2023/04/12 06:05:33;;;;;;;5.47;3.47;;;14.40;96.70;;;;;;5080551;28;20063;-72
2023/04/12 06:08:04;;;;;;;5.70;3.80;;;14.30;96.70;;;;;;5077276;28;20754;-73
2023/04/12 06:10:32;;;;;;;6.40;3.65;;;14.40;96.70;;;;;;5076060;28;20501;-72
2023/04/12 06:13:03;;;;;;;5.40;3.47;;;14.50;96.70;;;;;;5066413;28;20048;-73
2023/04/12 06:15:33;;;;;;;4.53;3.47;;;14.50;96.70;;;;;;5078613;28;20075;-73
2023/04/12 06:18:03;;;;;;;6.03;4.00;;;14.50;96.70;;;;;;5071337;28;20052;-73
2023/04/12 06:20:31;;;;;;;6.22;4.10;;;14.50;96.70;;;;;;5083406;28;20767;-74
2023/04/12 06:23:00;;;;;;;8.70;4.22;;;14.50;96.70;;;;;;5074852;28;20051;-73
2023/04/12 06:25:28;;;;;;;7.93;5.65;;;14.50;96.70;;;;;;5080723;28;20043;-73
2023/04/12 06:27:57;;;;;;;7.72;6.25;;;14.50;96.70;;;;;;5080912;28;20123;-72
2023/04/12 06:30:26;;;;;;;6.93;5.75;;;14.60;96.70;;;;;;5089797;28;20048;-73
2023/04/12 06:32:55;;;;;;;7.88;5.90;;;14.60;96.70;;;;;;5085534;28;20052;-73
2023/04/12 06:35:25;;;;;;;8.63;5.28;;;14.60;96.70;;;;;;5090423;28;20106;-74
2023/04/12 06:37:53;;;;;;;6.65;5.40;;;14.60;96.70;;;;;;5099150;28;20122;-73
2023/04/12 06:40:21;;;;;;;6.53;4.93;;;14.60;96.70;;;;;;5082365;28;20038;-73
2023/04/12 06:42:49;;;;;;;6.53;5.35;;;14.60;96.70;;;;;;5082684;28;20126;-73
2023/04/12 06:45:22;;;;;;;6.90;5.05;;;14.60;96.70;;;;;;5080750;28;20082;-73
2023/04/12 06:47:50;;;;;;;6.22;4.72;;;14.60;96.70;;;;;;5095720;28;20039;-73
2023/04/12 06:50:18;;;;;;;7.55;5.50;;;14.70;96.70;;;;;;5090489;28;20147;-74
2023/04/12 06:52:48;;;;;;;7.30;4.82;;;14.70;96.70;;;;;;5088203;28;20071;-74
2023/04/12 06:55:16;;;;;;;6.50;4.63;;;14.70;96.70;;;;;;5082363;28;20420;-73
2023/04/12 06:57:45;;;;;;;5.95;4.43;;;14.70;96.70;;;;;;5099510;28;20050;-73
2023/04/12 07:00:13;;;;;;;7.10;4.95;;;14.70;96.70;;;;;;5100782;28;20036;-73
2023/04/12 07:02:42;;;;;;;7.25;4.38;;;14.60;96.70;;;;;;5085883;28;20047;-73
2023/04/12 07:05:10;;;;;;;4.70;4.15;;;14.60;96.70;;;;;;5080455;28;20052;-73
2023/04/12 07:07:39;;;;;;;12.75;5.45;;;14.60;96.70;;;;;;5081427;28;20595;-73
2023/04/12 07:10:09;;;;;;;6.35;4.18;;;14.60;96.70;;;;;;5080942;28;20051;-73
2023/04/12 07:12:37;;;;;;;4.97;3.88;;;14.60;96.70;;;;;;5090907;28;20044;-74
2023/04/12 07:15:06;;;;;;;7.55;3.95;;;14.70;96.70;;;;;;5080952;28;20607;-73
2023/04/12 07:17:35;;;;;;;5.15;4.00;;;14.70;96.70;;;;;;5088514;28;20084;-73
2023/04/12 07:20:04;;;;;;;8.63;4.60;;;14.80;96.70;;;;;;5063248;28;20148;-73
2023/04/12 07:22:32;;;;;;;8.32;4.10;;;14.80;96.70;;;;;;5082439;28;20433;-73
2023/04/12 07:25:00;;;;;;;6.43;4.97;;;14.80;96.70;;;;;;5090617;28;20050;-73
2023/04/12 07:27:30;;;;;;;6.40;4.45;;;14.80;96.70;;;;;;5091777;28;20552;-73
2023/04/12 07:29:58;;;;;;;7.65;4.65;;;14.80;96.70;;;;;;5081884;28;20131;-73
2023/04/12 07:32:26;;;;;;;9.00;4.30;;;14.80;96.70;;;;;;5085536;28;20044;-73
2023/04/12 07:34:55;;;;;;;6.78;4.30;;;14.80;96.70;;;;;;5097085;28;20041;-74
2023/04/12 07:37:23;;;;;;;5.78;4.40;;;14.80;96.70;;;;;;5088338;28;20032;-73
2023/04/12 07:39:51;;;;;;;6.32;4.43;;;14.90;96.70;;;;;;5081292;28;20124;-73
2023/04/12 07:42:20;;;;;;;10.02;4.65;;;14.90;96.70;;;;;;5084523;28;20043;-73
2023/04/12 07:44:50;;;;;;;7.43;4.45;;;14.90;96.70;;;;;;5076540;28;20051;-74
2023/04/12 07:47:18;;;;;;;5.47;4.22;;;15.00;96.70;;;;;;5092865;28;20462;-73
2023/04/12 07:49:46;;;;;;;7.32;4.68;;;15.00;96.70;;;;;;5095304;28;20044;-73
2023/04/12 07:52:14;;;;;;;6.68;4.30;;;15.00;96.70;;;;;;5083915;28;20498;-73
2023/04/12 07:54:42;;;;;;;9.30;4.50;;;15.10;96.70;;;;;;5093983;28;20097;-73
2023/04/12 07:57:11;;;;;;;8.45;5.22;;;15.00;96.70;;;;;;5090727;28;20035;-73
2023/04/12 07:59:39;;;;;;;8.07;4.90;;;15.00;96.70;;;;;;5096074;28;20036;-73
2023/04/12 08:02:08;;;;;;;7.80;4.78;;;15.00;96.70;;;;;;5067136;28;20143;-73
2023/04/12 08:04:37;;;;;;;7.13;4.93;;;15.00;96.70;;;;;;5091110;28;20497;-73
2023/04/12 08:07:05;;;;;;;8.95;5.13;;;15.00;96.70;;;;;;5086859;28;20058;-73
2023/04/12 08:09:33;;;;;;;6.85;4.90;;;15.00;96.70;;;;;;5095462;28;20028;-73
2023/04/12 08:12:02;;;;;;;7.60;5.03;;;15.00;96.70;;;;;;5088833;28;20622;-73
2023/04/12 08:14:30;;;;;;;7.82;4.75;;;15.00;96.70;;;;;;5098885;28;20122;-73
2023/04/12 08:16:58;;;;;;;6.97;4.65;;;15.00;96.70;;;;;;5091411;28;20040;-73
2023/04/12 08:19:28;;;;;;;6.18;4.53;;;15.00;96.70;;;;;;5085936;28;20042;-73
2023/04/12 08:21:57;;;;;;;6.65;4.70;;;15.00;96.70;;;;;;5082473;28;20039;-73
2023/04/12 08:24:25;;;;;;;9.43;4.85;;;15.00;96.70;;;;;;5096891;28;20062;-73
2023/04/12 08:26:53;;;;;;;6.10;4.53;;;15.00;96.70;;;;;;5090652;28;20485;-73
2023/04/12 08:29:21;;;;;;;6.82;5.07;;;15.00;96.70;;;;;;5092829;28;20390;-75
2023/04/12 08:31:50;;;;;;;6.88;5.13;;;15.00;96.70;;;;;;5065896;28;20136;-73
2023/04/12 08:34:21;;;;;;;6.97;4.63;;;15.00;96.70;;;;;;5084468;28;20433;-73
2023/04/12 08:36:50;;;;;;;7.53;5.57;;;15.10;96.70;;;;;;5097414;28;20489;-73
2023/04/12 08:39:19;;;;;;;9.35;5.22;;;15.10;96.70;;;;;;5089950;28;20043;-73
2023/04/12 08:41:48;;;;;;;9.32;5.53;;;15.10;96.70;;;;;;5084662;28;20047;-74
2023/04/12 08:44:16;;;;;;;9.55;5.45;;;15.00;96.70;;;;;;5092617;28;20051;-73
2023/04/12 08:46:46;;;;;;;7.30;5.13;;;15.00;96.70;;;;;;5086385;28;20048;-74
2023/04/12 08:49:15;;;;;;;19.42;5.88;;;15.00;96.70;;;;;;5066838;28;20047;-73
2023/04/12 08:51:44;;;;;;;9.00;5.55;;;15.00;96.70;;;;;;5087071;28;20382;-73
2023/04/12 08:54:14;;;;;;;10.82;6.03;;;15.10;96.70;;;;;;5092493;28;20089;-74
2023/04/12 08:56:44;;;;;;;10.10;4.85;;;15.20;96.70;;;;;;5082036;28;20353;-73
2023/04/12 08:59:13;;;;;;;11.95;5.47;;;15.20;96.70;;;;;;5084189;28;20094;-74
2023/04/12 09:01:41;;;;;;;7.50;4.95;;;15.30;96.70;;;;;;5080074;28;20526;-74
2023/04/12 09:04:10;;;;;;;9.55;5.38;;;15.30;96.70;;;;;;5087747;28;20619;-74
2023/04/12 09:06:38;;;;;;;12.73;6.32;;;15.30;96.70;;;;;;5090781;28;20040;-74
2023/04/12 09:09:07;;;;;;;9.93;5.40;;;15.50;96.70;;;;;;5099795;28;20047;-73
2023/04/12 09:11:36;;;;;;;8.32;5.05;;;15.50;96.70;;;;;;5075155;28;20089;-74
2023/04/12 09:14:20;;;;;;;11.75;5.90;;;15.50;96.70;;;;;;5087476;28;20044;-74
2023/04/12 09:16:49;;;;;;;10.55;5.40;;;15.60;96.70;;;;;;5066365;28;20040;-74
2023/04/12 09:19:30;;;;;;;12.30;5.68;;;15.70;96.70;;;;;;5084652;28;20135;-74
2023/04/12 09:21:59;;;;;;;9.95;5.50;;;15.80;96.70;;;;;;5083745;28;20050;-73
2023/04/12 09:24:28;;;;;;;8.88;4.88;;;15.80;96.70;;;;;;5092632;28;20047;-73
2023/04/12 09:27:06;;;;;;;9.52;5.55;;;15.80;96.70;;;;;;5082744;28;20511;-73
2023/04/12 09:29:34;;;;;;;11.02;5.22;;;15.90;96.70;;;;;;5087661;28;20127;-73
2023/04/12 09:32:03;;;;;;;9.77;5.53;;;15.90;96.70;;;;;;5075804;28;20047;-74
2023/04/12 09:34:34;;;;;;;7.68;5.18;;;16.00;96.70;;;;;;5092564;28;20044;-74
2023/04/12 09:37:13;;;;;;;7.20;5.00;;;16.10;96.70;;;;;;5097632;28;20051;-74
2023/04/12 09:39:42;;;;;;;16.60;5.95;;;16.10;96.70;;;;;;5099223;28;20547;-73
2023/04/12 09:42:14;;;;;;;11.50;5.88;;;16.10;96.70;;;;;;5083414;28;20044;-73
2023/04/12 09:45:17;;;;;;;14.88;5.93;;;16.10;96.70;;;;;;5083487;28;20165;-73
2023/04/12 09:47:45;;;;;;;11.15;6.20;;;16.10;96.70;;;;;;5092659;28;20088;-73
2023/04/12 09:50:21;;;;;;;9.55;6.60;;;16.10;96.70;;;;;;5090153;28;20060;-73
2023/04/12 09:52:51;;;;;;;10.80;6.68;;;16.10;96.70;;;;;;5088946;28;20047;-73
2023/04/12 09:55:21;;;;;;;9.80;6.43;;;16.30;96.70;;;;;;5070583;28;20054;-73
2023/04/12 09:57:52;;;;;;;8.43;6.57;;;16.40;96.70;;;;;;5088679;28;20043;-73
2023/04/12 10:00:24;;;;;;;8.35;5.95;;;16.60;96.70;;;;;;5082531;28;20043;-73
2023/04/12 10:02:53;;;;;;;11.48;7.00;;;16.70;96.70;;;;;;5091948;28;20101;-74
2023/04/12 10:05:26;;;;;;;15.73;7.40;;;16.70;96.70;;;;;;5064298;28;20101;-75
2023/04/12 10:07:58;;;;;;;12.68;7.72;;;16.70;96.70;;;;;;5099702;28;20085;-74
2023/04/12 10:10:30;;;;;;;17.20;8.18;;;16.70;96.70;;;;;;5098567;28;20048;-74
2023/04/12 10:13:00;;;;;;;13.07;8.25;;;16.80;96.70;;;;;;5088711;28;20048;-73
2023/04/12 10:15:29;;;;;;;17.75;8.30;;;17.00;96.70;;;;;;5081069;28;20569;-74
2023/04/12 10:18:03;;;;;;;16.58;8.65;;;17.20;96.70;;;;;;5081433;28;20036;-73
2023/04/12 10:20:31;;;;;;;14.85;9.60;;;17.50;96.70;;;;;;5082556;28;20448;-74
2023/04/12 10:23:05;;;;;;;14.23;8.20;;;17.60;96.70;;;;;;5098105;28;20055;-74
2023/04/12 10:25:37;;;;;;;14.38;7.65;;;17.60;96.70;;;;;;5080337;28;20075;-74
2023/04/12 10:28:17;;;;;;;10.77;7.22;;;17.70;96.70;;;;;;5099468;28;20501;-74
2023/04/12 10:30:53;;;;;;;12.40;6.63;;;17.70;96.70;;;;;;5090935;28;20090;-73
2023/04/12 10:33:25;;;;;;;9.20;3.75;;;17.70;96.70;;;;;;5070221;28;20376;-74
2023/04/12 10:35:56;;;;;;;8.02;4.72;;;17.70;96.70;;;;;;5090948;28;20493;-74
2023/04/12 10:38:26;;;;;;;12.38;4.80;;;17.80;96.70;;;;;;5097301;28;20043;-74
2023/04/12 10:41:17;;;;;;;10.23;4.43;;;17.80;96.70;;;;;;5082719;28;20071;-74
2023/04/12 10:43:48;;;;;;;6.93;4.47;;;17.80;96.70;;;;;;5081132;28;20044;-74
2023/04/12 10:46:48;;;;;;;9.20;3.83;;;17.90;96.70;;;;;;5095711;28;20778;-73
2023/04/12 10:49:17;;;;;;;6.43;2.80;;;18.10;96.70;;;;;;5085532;28;20071;-74
2023/04/12 10:52:13;;;;;;;5.80;2.58;;;18.20;96.70;;;;;;5092254;28;20041;-74
2023/04/12 10:54:46;;;;;;;6.30;3.05;;;18.20;96.70;;;;;;5066174;28;20040;-74
2023/04/12 10:57:44;;;;;;;4.07;1.98;;;18.20;96.70;;;;;;5077921;28;20050;-73
2023/04/12 11:00:15;;;;;;;8.98;2.90;;;18.20;96.70;;;;;;5079537;28;20058;-72
2023/04/12 11:03:06;;;;;;;7.65;2.22;;;18.20;96.70;;;;;;5081981;28;20549;-74
2023/04/12 11:06:00;;;;;;;5.18;2.50;;;18.20;96.70;;;;;;5084901;28;20058;-74
2023/04/12 11:08:59;;;;;;;5.72;2.53;;;18.10;96.70;;;;;;5079131;28;20082;-73
2023/04/12 11:11:33;;;;;;;6.95;2.72;;;18.20;96.70;;;;;;5081885;28;20048;-73
2023/04/12 11:14:02;;;;;;;7.28;2.42;;;18.10;96.70;;;;;;5069716;28;20059;-74
2023/04/12 11:16:32;;;;;;;7.32;2.95;;;18.00;96.70;;;;;;5082140;28;20048;-74
2023/04/12 11:19:01;;;;;;;7.07;2.67;;;18.00;96.70;;;;;;5087412;28;20688;-74
2023/04/12 11:21:30;;;;;;;5.20;2.72;;;18.00;96.70;;;;;;5087087;28;20156;-74
2023/04/12 11:23:59;;;;;;;6.70;3.17;;;18.10;96.70;;;;;;5075711;28;20127;-74
2023/04/12 11:26:30;;;;;;;8.15;2.63;;;18.40;96.70;;;;;;5085515;28;20047;-75
2023/04/12 11:29:07;;;;;;;5.90;2.33;;;18.50;96.70;;;;;;5087740;28;20037;-74
2023/04/12 11:31:39;;;;;;;8.43;3.00;;;18.80;96.70;;;;;;5088376;28;20040;-74
2023/04/12 11:34:07;;;;;;;7.35;2.60;;;18.70;96.70;;;;;;5088845;28;20498;-73
2023/04/12 11:36:38;;;;;;;7.15;2.10;;;18.60;96.70;;;;;;5085169;28;20064;-73
2023/04/12 11:39:07;;;;;;;4.22;1.88;;;18.60;96.70;;;;;;5075784;28;20138;-73
2023/04/12 11:41:37;;;;;;;5.63;1.90;;;18.60;96.70;;;;;;5080606;28;20584;-73
2023/04/12 11:44:06;;;;;;;4.28;1.88;;;18.50;96.70;;;;;;5078665;28;20147;-74
2023/04/12 11:46:35;;;;;;;8.75;2.50;;;18.40;96.70;;;;;;5093591;28;20071;-75
2023/04/12 11:49:05;;;;;;;5.50;2.17;;;18.30;96.70;;;;;;5083421;28;20096;-73
2023/04/12 11:51:35;;;;;;;4.97;2.33;;;18.30;96.70;;;;;;5084047;28;20051;-75
2023/04/12 11:54:03;;;;;;;5.35;2.10;;;18.50;96.70;;;;;;5090539;28;20043;-75
2023/04/12 11:56:31;;;;;;;6.50;2.42;;;18.50;96.70;;;;;;5084457;28;20039;-75
2023/04/12 11:59:00;;;;;;;8.15;2.40;;;18.70;96.70;;;;;;5079815;28;20131;-75
2023/04/12 12:01:30;;;;;;;6.75;2.40;;;18.90;96.70;;;;;;5083692;28;20592;-74
2023/04/12 12:03:59;;;;;;;7.88;2.53;;;19.20;96.70;;;;;;5079520;28;20064;-74
2023/04/12 12:06:30;;;;;;;4.53;1.90;;;19.50;96.70;;;;;;5087795;28;20885;-74
2023/04/12 12:08:59;;;;;;;5.95;1.95;;;19.80;96.70;;;;;;5088499;28;20313;-74
2023/04/12 12:11:28;;;;;;;5.57;2.13;;;20.00;96.70;;;;;;5095121;28;20469;-74
2023/04/12 12:13:58;;;;;;;4.70;1.75;;;20.00;96.70;;;;;;5097802;28;20443;-74
2023/04/12 12:16:28;;;;;;;4.63;1.83;;;20.10;96.70;;;;;;5082795;28;20495;-74
2023/04/12 12:18:57;;;;;;;6.57;1.55;;;20.10;96.70;;;;;;5082522;28;20582;-74
2023/04/12 12:21:26;;;;;;;6.90;1.90;;;20.30;96.70;;;;;;5097851;28;20047;-74
2023/04/12 12:23:56;;;;;;;4.63;1.77;;;20.50;96.70;;;;;;5101729;28;20069;-74
2023/04/12 12:26:27;;;;;;;5.25;1.60;;;20.50;96.70;;;;;;5077805;28;20051;-74
2023/04/12 12:28:56;;;;;;;6.95;1.52;;;20.60;96.70;;;;;;5082391;28;20054;-75
2023/04/12 12:31:27;;;;;;;2.72;1.02;;;20.70;96.70;;;;;;5095694;28;20333;-74
2023/04/12 12:33:56;;;;;;;3.20;1.05;;;20.90;96.70;;;;;;5101992;28;20058;-74
2023/04/12 12:36:32;;;;;;;3.72;1.27;;;20.90;96.70;;;;;;5095044;27;20066;-74
2023/04/12 12:39:06;;;;;;;4.45;1.23;;;21.10;96.70;;;;;;5079286;28;20182;-74
2023/04/12 12:41:35;;;;;;;8.13;1.63;;;21.30;96.70;;;;;;5075933;28;20040;-76
2023/04/12 12:44:03;;;;;;;3.30;1.63;;;21.50;96.70;;;;;;5080715;28;20048;-77
2023/04/12 12:46:31;;;;;;;4.20;1.55;;;21.50;96.70;;;;;;5085047;28;20751;-76
2023/04/12 12:49:20;;;;;;;4.85;1.65;;;21.20;96.70;;;;;;5064354;28;20044;-77
2023/04/12 12:51:49;;;;;;;6.78;1.77;;;20.90;96.70;;;;;;5097345;28;20083;-77
2023/04/12 12:54:19;;;;;;;2.90;1.00;;;20.80;96.70;;;;;;5085725;28;20054;-76
2023/04/12 12:57:07;;;;;;;4.43;1.58;;;20.90;96.70;;;;;;5090071;28;20090;-78
2023/04/12 12:59:35;;;;;;;4.47;1.02;;;21.20;96.70;;;;;;5067110;28;20147;-77
2023/04/12 13:02:04;;;;;;;3.10;1.13;;;21.20;96.70;;;;;;5088020;28;20043;-79
2023/04/12 13:04:33;;;;;;;3.13;1.25;;;21.30;96.70;;;;;;5066564;28;20048;-78
2023/04/12 13:07:01;;;;;;;5.22;1.60;;;21.40;96.70;;;;;;5090823;28;20741;-76
2023/04/12 13:09:32;;;;;;;1.98;0.90;;;21.60;96.70;;;;;;5091968;28;20043;-76
2023/04/12 13:12:01;;;;;;;4.57;1.25;;;21.60;96.70;;;;;;5084130;28;20055;-76
2023/04/12 13:14:29;;;;;;;2.88;1.35;;;21.70;96.70;;;;;;5082109;28;20036;-76
2023/04/12 13:16:58;;;;;;;5.85;1.33;;;21.20;96.70;;;;;;5083024;28;20135;-75
2023/04/12 13:19:26;;;;;;;5.00;1.33;;;21.10;96.70;;;;;;5084989;28;20072;-76
2023/04/12 13:21:55;;;;;;;2.22;0.90;;;21.30;96.70;;;;;;5093643;28;20032;-77
2023/04/12 13:24:24;;;;;;;4.80;1.30;;;21.60;96.70;;;;;;5067690;28;20112;-76
2023/04/12 13:26:54;;;;;;;2.97;1.38;;;21.30;96.70;;;;;;5096203;28;20410;-77
2023/04/12 13:29:22;;;;;;;2.97;1.23;;;21.30;96.70;;;;;;5081273;28;20142;-76
2023/04/12 13:31:50;;;;;;;3.88;1.38;;;21.40;96.70;;;;;;5093929;28;20054;-77
2023/04/12 13:34:19;;;;;;;7.95;1.55;;;21.20;96.70;;;;;;5083608;28;20040;-76
2023/04/12 13:36:48;;;;;;;7.20;1.73;;;21.20;96.70;;;;;;5081767;28;20044;-76
2023/04/12 13:39:17;;;;;;;4.30;1.23;;;21.20;96.70;;;;;;5090919;28;20059;-76
2023/04/12 13:41:45;;;;;;;3.95;1.65;;;21.20;96.70;;;;;;5074231;28;20036;-76
2023/04/12 13:44:17;;;;;;;5.05;2.00;;;21.20;96.70;;;;;;5091155;28;20052;-76
2023/04/12 13:46:46;;;;;;;4.70;1.52;;;21.40;96.70;;;;;;5083094;28;20127;-77
2023/04/12 13:49:14;;;;;;;3.83;1.50;;;21.50;96.70;;;;;;5092669;28;20054;-75
2023/04/12 13:51:43;;;;;;;6.57;1.80;;;21.70;96.70;;;;;;5091194;28;20049;-76
2023/04/12 13:54:14;;;;;;;12.05;2.75;;;21.80;96.70;;;;;;5089830;28;20402;-76
2023/04/12 13:56:43;;;;;;;7.50;2.28;;;22.10;96.70;;;;;;5082174;28;20115;-76
2023/04/12 13:59:11;;;;;;;8.65;2.08;;;22.20;96.70;;;;;;5081609;28;20068;-77
2023/04/12 14:01:41;;;;;;;4.15;1.80;;;22.20;96.70;;;;;;5063644;28;20402;-77
2023/04/12 14:04:10;;;;;;;5.25;1.95;;;21.90;96.70;;;;;;5093487;28;20121;-76
2023/04/12 14:06:39;;;;;;;5.57;1.52;;;22.10;96.70;;;;;;5093110;28;20043;-77
2023/04/12 14:09:07;;;;;;;6.25;1.70;;;22.10;96.70;;;;;;5098471;28;20039;-77
2023/04/12 14:11:46;;;;;;;5.80;1.65;;;22.50;96.70;;;;;;5083937;28;20397;-77
2023/04/12 14:14:14;;;;;;;4.25;1.77;;;23.00;96.70;;;;;;5094501;28;20166;-76
2023/04/12 14:16:45;;;;;;;5.35;1.73;;;23.20;96.70;;;;;;5091649;28;20643;-76
2023/04/12 14:19:15;;;;;;;6.10;1.60;;;22.90;96.70;;;;;;5081241;28;20044;-77
2023/04/12 14:21:43;;;;;;;5.75;1.95;;;23.20;96.70;;;;;;5086048;28;20039;-77
2023/04/12 14:24:12;;;;;;;4.00;1.92;;;23.50;96.70;;;;;;5080921;28;20044;-77
2023/04/12 14:26:40;;;;;;;7.63;1.85;;;23.20;96.70;;;;;;5096689;28;20705;-77
2023/04/12 14:29:09;;;;;;;4.88;1.48;;;22.90;96.70;;;;;;5088853;28;21142;-77
2023/04/12 14:31:39;;;;;;;6.70;1.67;;;23.40;96.70;;;;;;5096696;28;20043;-77
2023/04/12 14:34:09;;;;;;;4.68;1.35;;;22.70;96.70;;;;;;5079090;28;20047;-77
2023/04/12 14:36:38;;;;;;;3.10;1.25;;;23.60;96.70;;;;;;5082735;28;20047;-77
2023/04/12 14:39:06;;;;;;;3.45;1.70;;;23.90;96.70;;;;;;5081336;28;20563;-77
2023/04/12 14:41:38;;;;;;;6.50;1.80;;;23.90;96.70;;;;;;5097584;28;20130;-77
2023/04/12 14:44:07;;;;;;;2.53;1.10;;;23.80;96.70;;;;;;5094351;28;20562;-77
2023/04/12 14:46:35;;;;;;;6.10;1.40;;;24.50;96.70;;;;;;5099182;28;20134;-77
2023/04/12 14:49:04;;;;;;;3.22;1.00;;;25.10;96.70;;;;;;5067192;28;20409;-77
2023/04/12 14:51:35;;;;;;;3.40;1.10;;;24.80;96.70;;;;;;5088214;28;20124;-77
2023/04/12 14:54:03;;;;;;;4.72;1.40;;;24.30;96.70;;;;;;5080783;28;20044;-77
2023/04/12 14:56:32;;;;;;;5.82;1.48;;;24.70;96.70;;;;;;5070342;28;20174;-77
2023/04/12 14:59:09;;;;;;;9.48;2.00;;;25.50;96.70;;;;;;5092548;28;20438;-77
2023/04/12 15:01:38;;;;;;;4.75;1.40;;;26.00;96.70;;;;;;5080607;28;20135;-76
2023/04/12 15:04:07;;;;;;;4.80;1.42;;;26.20;96.70;;;;;;5098442;28;20803;-77
2023/04/12 15:06:41;;;;;;;4.25;1.88;;;26.20;96.70;;;;;;5098153;28;20083;-76
2023/04/12 15:09:10;;;;;;;7.45;4.13;;;26.50;96.70;;;;;;5100198;28;20807;-78
2023/04/12 15:11:44;;;;;;;3.28;1.23;;;26.50;96.70;;;;;;5098974;28;20043;-77
2023/04/12 15:14:19;;;;;;;5.70;1.40;;;26.60;96.70;;;;;;5076980;28;20574;-76
2023/04/12 15:16:47;;;;;;;3.50;1.38;;;27.00;96.70;;;;;;5100362;28;20791;-77
2023/04/12 15:19:18;;;;;;;3.00;1.17;;;27.10;96.70;;;;;;5097280;28;20157;-74
2023/04/12 15:21:53;;;;;;;4.43;2.35;;;27.00;96.70;;;;;;5076044;28;20054;-76
2023/04/12 15:24:22;;;;;;;4.50;1.63;;;27.50;96.70;;;;;;5088848;28;20048;-77
2023/04/12 15:26:51;;;;;;;2.95;1.70;;;27.80;96.70;;;;;;5086846;28;20097;-76
2023/04/12 15:29:21;;;;;;;3.80;1.30;;;28.00;96.70;;;;;;5096193;28;20051;-77
2023/04/12 15:31:50;;;;;;;4.13;1.52;;;27.40;96.70;;;;;;5099136;28;20043;-77
2023/04/12 15:34:18;;;;;;;4.13;1.25;;;27.20;96.70;;;;;;5088974;28;20052;-76
2023/04/12 15:36:47;;;;;;;3.38;1.05;;;27.40;96.70;;;;;;5098527;28;20035;-76
2023/04/12 15:39:17;;;;;;;3.67;1.95;;;27.10;96.70;;;;;;5099445;28;20043;-77
2023/04/12 15:41:46;;;;;;;4.50;1.58;;;27.20;96.70;;;;;;5100614;28;20126;-76
2023/04/12 15:44:14;;;;;;;3.13;1.23;;;27.40;96.70;;;;;;5097616;28;20055;-76
2023/04/12 15:46:45;;;;;;;3.05;1.52;;;27.80;96.70;;;;;;5089626;28;20051;-77
2023/04/12 15:49:26;;;;;;;4.55;1.38;;;28.00;96.70;;;;;;5066938;28;20058;-77
2023/04/12 15:51:55;;;;;;;4.40;1.88;;;28.40;96.70;;;;;;5099390;28;20044;-77
2023/04/12 15:54:25;;;;;;;3.10;1.20;;;28.80;96.70;;;;;;5094142;28;20375;-77
2023/04/12 15:56:54;;;;;;;2.65;1.10;;;28.80;96.70;;;;;;5090928;28;20123;-77
2023/04/12 15:59:23;;;;;;;3.95;1.35;;;28.30;96.70;;;;;;5090210;28;20226;-78
2023/04/12 16:01:51;;;;;;;2.35;1.08;;;28.00;96.70;;;;;;5089033;28;20050;-77
2023/04/12 16:04:20;;;;;;;2.80;1.40;;;28.20;96.70;;;;;;5102276;28;20146;-77
2023/04/12 16:06:49;;;;;;;3.08;1.38;;;28.20;96.70;;;;;;5098209;28;20131;-77
2023/04/12 16:09:17;;;;;;;6.28;1.65;;;28.20;96.70;;;;;;5088669;28;20570;-77
2023/04/12 16:11:47;;;;;;;2.80;1.30;;;28.30;96.70;;;;;;5067666;28;20040;-77
2023/04/12 16:14:16;;;;;;;2.92;1.00;;;28.50;96.70;;;;;;5083251;28;20127;-76
2023/04/12 16:16:45;;;;;;;3.35;1.35;;;28.90;96.70;;;;;;5087533;28;20050;-77
2023/04/12 16:19:14;;;;;;;2.88;1.10;;;29.10;96.70;;;;;;5103745;28;20698;-76
2023/04/12 16:21:43;;;;;;;4.32;1.13;;;29.60;96.70;;;;;;5088369;28;20828;-77
2023/04/12 16:24:12;;;;;;;3.67;1.30;;;29.80;96.70;;;;;;5083114;28;20049;-77
2023/04/12 16:26:40;;;;;;;3.38;1.42;;;30.40;96.70;;;;;;5079558;28;20100;-77
2023/04/12 16:29:12;;;;;;;5.10;1.88;;;30.00;96.70;;;;;;5079137;28;20058;-77
2023/04/12 16:31:40;;;;;;;3.17;1.65;;;30.30;96.70;;;;;;5085354;28;20069;-77